sensor_id;sensor_type;location;lat;lon;timestamp;P1;durP1;ratioP1;P2;durP2;ratioP2
16296;SDS011;8256;56.144;13.394;2023-06-14T00:02:41;1.13;;;0.50;;
16296;SDS011;8256;56.144;13.394;2023-06-14T00:05:27;0.40;;;0.10;;
16296;SDS011;8256;56.144;13.394;2023-06-14T00:08:15;1.25;;;0.90;;
16296;SDS011;8256;56.144;13.394;2023-06-14T00:11:00;0.63;;;0.20;;
16296;SDS011;8256;56.144;13.394;2023-06-14T00:13:46;0.82;;;0.30;;
16296;SDS011;8256;56.144;13.394;2023-06-14T00:16:32;0.47;;;0.10;;
16296;SDS011;8256;56.144;13.394;2023-06-14T00:19:18;1.58;;;0.25;;
16296;SDS011;8256;56.144;13.394;2023-06-14T00:22:05;0.50;;;0.10;;
16296;SDS011;8256;56.144;13.394;2023-06-14T00:24:51;0.68;;;0.13;;
16296;SDS011;8256;56.144;13.394;2023-06-14T00:27:36;0.57;;;0.10;;
16296;SDS011;8256;56.144;13.394;2023-06-14T00:30:22;0.50;;;0.10;;
16296;SDS011;8256;56.144;13.394;2023-06-14T00:33:08;0.77;;;0.28;;
16296;SDS011;8256;56.144;13.394;2023-06-14T00:35:54;0.60;;;0.10;;
16296;SDS011;8256;56.144;13.394;2023-06-14T00:38:39;0.40;;;0.10;;
16296;SDS011;8256;56.144;13.394;2023-06-14T00:41:25;0.52;;;0.10;;
16296;SDS011;8256;56.144;13.394;2023-06-14T00:44:10;0.67;;;0.10;;
16296;SDS011;8256;56.144;13.394;2023-06-14T00:46:56;0.60;;;0.10;;
16296;SDS011;8256;56.144;13.394;2023-06-14T00:49:42;0.40;;;0.10;;
16296;SDS011;8256;56.144;13.394;2023-06-14T00:52:28;0.40;;;0.10;;
16296;SDS011;8256;56.144;13.394;2023-06-14T00:55:14;0.70;;;0.10;;
16296;SDS011;8256;56.144;13.394;2023-06-14T00:58:00;0.40;;;0.10;;
16296;SDS011;8256;56.144;13.394;2023-06-14T01:00:46;0.68;;;0.30;;
16296;SDS011;8256;56.144;13.394;2023-06-14T01:03:32;0.57;;;0.10;;
16296;SDS011;8256;56.144;13.394;2023-06-14T01:06:34;0.82;;;0.17;;
16296;SDS011;8256;56.144;13.394;2023-06-14T01:09:27;0.50;;;0.10;;
16296;SDS011;8256;56.144;13.394;2023-06-14T01:12:27;0.43;;;0.10;;
16296;SDS011;8256;56.144;13.394;2023-06-14T01:15:14;0.50;;;0.10;;
16296;SDS011;8256;56.144;13.394;2023-06-14T01:18:00;0.82;;;0.20;;
16296;SDS011;8256;56.144;13.394;2023-06-14T01:20:50;0.40;;;0.10;;
16296;SDS011;8256;56.144;13.394;2023-06-14T01:23:35;0.43;;;0.10;;
16296;SDS011;8256;56.144;13.394;2023-06-14T01:26:24;0.40;;;0.10;;
16296;SDS011;8256;56.144;13.394;2023-06-14T01:29:11;0.40;;;0.10;;
16296;SDS011;8256;56.144;13.394;2023-06-14T01:31:59;0.35;;;0.10;;
16296;SDS011;8256;56.144;13.394;2023-06-14T01:34:45;0.88;;;0.32;;
16296;SDS011;8256;56.144;13.394;2023-06-14T01:37:30;0.40;;;0.10;;
16296;SDS011;8256;56.144;13.394;2023-06-14T01:40:16;0.40;;;0.10;;
16296;SDS011;8256;56.144;13.394;2023-06-14T01:43:02;0.82;;;0.20;;
16296;SDS011;8256;56.144;13.394;2023-06-14T01:45:48;0.60;;;0.20;;
16296;SDS011;8256;56.144;13.394;2023-06-14T01:48:35;0.65;;;0.20;;
16296;SDS011;8256;56.144;13.394;2023-06-14T01:51:21;0.80;;;0.45;;
16296;SDS011;8256;56.144;13.394;2023-06-14T01:54:07;0.50;;;0.10;;
16296;SDS011;8256;56.144;13.394;2023-06-14T01:56:52;0.40;;;0.10;;
16296;SDS011;8256;56.144;13.394;2023-06-14T01:59:38;0.55;;;0.10;;
16296;SDS011;8256;56.144;13.394;2023-06-14T02:02:24;0.60;;;0.10;;
16296;SDS011;8256;56.144;13.394;2023-06-14T02:05:09;0.35;;;0.10;;
16296;SDS011;8256;56.144;13.394;2023-06-14T02:07:55;0.60;;;0.10;;
16296;SDS011;8256;56.144;13.394;2023-06-14T02:10:41;0.40;;;0.10;;
16296;SDS011;8256;56.144;13.394;2023-06-14T02:13:26;0.30;;;0.10;;
16296;SDS011;8256;56.144;13.394;2023-06-14T02:16:12;0.93;;;0.10;;
16296;SDS011;8256;56.144;13.394;2023-06-14T02:18:58;0.40;;;0.10;;
16296;SDS011;8256;56.144;13.394;2023-06-14T02:21:43;0.90;;;0.10;;
16296;SDS011;8256;56.144;13.394;2023-06-14T02:24:29;0.30;;;0.00;;
16296;SDS011;8256;56.144;13.394;2023-06-14T02:27:15;0.70;;;0.10;;
16296;SDS011;8256;56.144;13.394;2023-06-14T02:30:00;0.50;;;0.10;;
16296;SDS011;8256;56.144;13.394;2023-06-14T02:32:46;0.30;;;0.03;;
16296;SDS011;8256;56.144;13.394;2023-06-14T02:35:33;0.80;;;0.20;;
16296;SDS011;8256;56.144;13.394;2023-06-14T02:38:19;0.50;;;0.10;;
16296;SDS011;8256;56.144;13.394;2023-06-14T02:41:05;0.55;;;0.13;;
16296;SDS011;8256;56.144;13.394;2023-06-14T02:43:51;0.40;;;0.10;;
16296;SDS011;8256;56.144;13.394;2023-06-14T02:46:37;0.40;;;0.10;;
16296;SDS011;8256;56.144;13.394;2023-06-14T02:49:22;0.30;;;0.10;;
16296;SDS011;8256;56.144;13.394;2023-06-14T02:52:08;0.60;;;0.10;;
16296;SDS011;8256;56.144;13.394;2023-06-14T02:54:54;0.73;;;0.20;;
16296;SDS011;8256;56.144;13.394;2023-06-14T02:57:40;0.50;;;0.10;;
16296;SDS011;8256;56.144;13.394;2023-06-14T03:00:25;0.40;;;0.10;;
16296;SDS011;8256;56.144;13.394;2023-06-14T03:03:11;0.60;;;0.20;;
16296;SDS011;8256;56.144;13.394;2023-06-14T03:06:01;0.40;;;0.10;;
16296;SDS011;8256;56.144;13.394;2023-06-14T03:08:49;1.05;;;0.73;;
16296;SDS011;8256;56.144;13.394;2023-06-14T03:11:35;0.40;;;0.10;;
16296;SDS011;8256;56.144;13.394;2023-06-14T03:14:21;0.88;;;0.22;;
16296;SDS011;8256;56.144;13.394;2023-06-14T03:17:06;0.73;;;0.20;;
16296;SDS011;8256;56.144;13.394;2023-06-14T03:19:53;0.60;;;0.10;;
16296;SDS011;8256;56.144;13.394;2023-06-14T03:22:39;0.50;;;0.10;;
16296;SDS011;8256;56.144;13.394;2023-06-14T03:25:24;0.50;;;0.10;;
16296;SDS011;8256;56.144;13.394;2023-06-14T03:28:11;1.65;;;0.50;;
16296;SDS011;8256;56.144;13.394;2023-06-14T03:30:56;0.40;;;0.10;;
16296;SDS011;8256;56.144;13.394;2023-06-14T03:33:42;0.73;;;0.20;;
16296;SDS011;8256;56.144;13.394;2023-06-14T03:36:27;0.95;;;0.17;;
16296;SDS011;8256;56.144;13.394;2023-06-14T03:39:13;0.63;;;0.10;;
16296;SDS011;8256;56.144;13.394;2023-06-14T03:41:58;0.40;;;0.10;;
16296;SDS011;8256;56.144;13.394;2023-06-14T03:44:44;0.53;;;0.10;;
16296;SDS011;8256;56.144;13.394;2023-06-14T03:47:30;0.95;;;0.20;;
16296;SDS011;8256;56.144;13.394;2023-06-14T03:50:16;1.02;;;0.38;;
16296;SDS011;8256;56.144;13.394;2023-06-14T03:53:02;0.90;;;0.20;;
16296;SDS011;8256;56.144;13.394;2023-06-14T03:55:48;0.50;;;0.10;;
16296;SDS011;8256;56.144;13.394;2023-06-14T03:58:33;0.70;;;0.20;;
16296;SDS011;8256;56.144;13.394;2023-06-14T04:01:19;1.20;;;0.57;;
16296;SDS011;8256;56.144;13.394;2023-06-14T04:04:18;0.50;;;0.10;;
16296;SDS011;8256;56.144;13.394;2023-06-14T04:07:14;0.80;;;0.20;;
16296;SDS011;8256;56.144;13.394;2023-06-14T04:10:30;1.10;;;0.32;;
16296;SDS011;8256;56.144;13.394;2023-06-14T04:17:00;1.33;;;0.30;;
16296;SDS011;8256;56.144;13.394;2023-06-14T04:20:05;1.50;;;0.40;;
16296;SDS011;8256;56.144;13.394;2023-06-14T04:23:10;1.88;;;0.40;;
16296;SDS011;8256;56.144;13.394;2023-06-14T04:26:03;1.73;;;0.40;;
16296;SDS011;8256;56.144;13.394;2023-06-14T04:28:55;1.70;;;0.50;;
16296;SDS011;8256;56.144;13.394;2023-06-14T04:35:31;2.65;;;0.70;;
16296;SDS011;8256;56.144;13.394;2023-06-14T04:42:25;2.95;;;0.60;;
16296;SDS011;8256;56.144;13.394;2023-06-14T04:45:15;2.43;;;0.70;;
16296;SDS011;8256;56.144;13.394;2023-06-14T04:48:21;2.63;;;0.85;;
16296;SDS011;8256;56.144;13.394;2023-06-14T04:51:08;2.70;;;0.70;;
16296;SDS011;8256;56.144;13.394;2023-06-14T04:53:54;2.30;;;0.65;;
16296;SDS011;8256;56.144;13.394;2023-06-14T04:56:46;2.88;;;0.93;;
16296;SDS011;8256;56.144;13.394;2023-06-14T04:59:32;2.00;;;0.60;;
16296;SDS011;8256;56.144;13.394;2023-06-14T05:02:21;7.15;;;0.88;;
16296;SDS011;8256;56.144;13.394;2023-06-14T05:05:07;2.60;;;0.80;;
16296;SDS011;8256;56.144;13.394;2023-06-14T05:07:53;2.88;;;1.02;;
16296;SDS011;8256;56.144;13.394;2023-06-14T05:10:38;2.13;;;0.68;;
16296;SDS011;8256;56.144;13.394;2023-06-14T05:13:24;2.17;;;0.60;;
16296;SDS011;8256;56.144;13.394;2023-06-14T05:16:10;4.20;;;1.15;;
16296;SDS011;8256;56.144;13.394;2023-06-14T05:18:56;5.32;;;0.80;;
16296;SDS011;8256;56.144;13.394;2023-06-14T05:21:42;9.55;;;1.13;;
16296;SDS011;8256;56.144;13.394;2023-06-14T05:24:27;4.40;;;1.13;;
16296;SDS011;8256;56.144;13.394;2023-06-14T05:27:16;4.93;;;0.90;;
16296;SDS011;8256;56.144;13.394;2023-06-14T05:30:01;7.70;;;1.08;;
16296;SDS011;8256;56.144;13.394;2023-06-14T05:32:47;3.20;;;0.88;;
16296;SDS011;8256;56.144;13.394;2023-06-14T05:35:33;2.17;;;0.65;;
16296;SDS011;8256;56.144;13.394;2023-06-14T05:38:18;2.85;;;0.80;;
16296;SDS011;8256;56.144;13.394;2023-06-14T05:41:04;2.67;;;0.90;;
16296;SDS011;8256;56.144;13.394;2023-06-14T05:43:49;3.47;;;0.90;;
16296;SDS011;8256;56.144;13.394;2023-06-14T05:46:35;7.38;;;1.17;;
16296;SDS011;8256;56.144;13.394;2023-06-14T05:49:21;2.80;;;0.82;;
16296;SDS011;8256;56.144;13.394;2023-06-14T05:52:06;1.67;;;0.40;;
16296;SDS011;8256;56.144;13.394;2023-06-14T05:54:52;2.53;;;0.70;;
16296;SDS011;8256;56.144;13.394;2023-06-14T05:57:38;2.40;;;0.70;;
16296;SDS011;8256;56.144;13.394;2023-06-14T06:00:23;1.90;;;0.50;;
16296;SDS011;8256;56.144;13.394;2023-06-14T06:03:09;2.50;;;0.82;;
16296;SDS011;8256;56.144;13.394;2023-06-14T06:05:56;2.30;;;0.80;;
16296;SDS011;8256;56.144;13.394;2023-06-14T06:08:42;3.67;;;0.80;;
16296;SDS011;8256;56.144;13.394;2023-06-14T06:11:27;2.28;;;0.65;;
16296;SDS011;8256;56.144;13.394;2023-06-14T06:14:13;2.22;;;0.60;;
16296;SDS011;8256;56.144;13.394;2023-06-14T06:16:59;2.63;;;0.70;;
16296;SDS011;8256;56.144;13.394;2023-06-14T06:19:44;2.88;;;1.00;;
16296;SDS011;8256;56.144;13.394;2023-06-14T06:22:30;2.33;;;0.70;;
16296;SDS011;8256;56.144;13.394;2023-06-14T06:25:15;2.70;;;1.00;;
16296;SDS011;8256;56.144;13.394;2023-06-14T06:28:02;2.60;;;1.00;;
16296;SDS011;8256;56.144;13.394;2023-06-14T06:30:47;2.72;;;0.93;;
16296;SDS011;8256;56.144;13.394;2023-06-14T06:33:33;6.90;;;1.25;;
16296;SDS011;8256;56.144;13.394;2023-06-14T06:36:18;3.10;;;1.43;;
16296;SDS011;8256;56.144;13.394;2023-06-14T06:39:04;2.67;;;0.88;;
16296;SDS011;8256;56.144;13.394;2023-06-14T06:41:55;4.18;;;1.05;;
16296;SDS011;8256;56.144;13.394;2023-06-14T06:44:40;3.10;;;0.95;;
16296;SDS011;8256;56.144;13.394;2023-06-14T06:47:26;2.80;;;1.05;;
16296;SDS011;8256;56.144;13.394;2023-06-14T06:50:12;2.53;;;0.87;;
16296;SDS011;8256;56.144;13.394;2023-06-14T06:52:57;3.45;;;1.17;;
16296;SDS011;8256;56.144;13.394;2023-06-14T06:55:43;3.40;;;1.02;;
16296;SDS011;8256;56.144;13.394;2023-06-14T06:58:28;3.47;;;1.20;;
16296;SDS011;8256;56.144;13.394;2023-06-14T07:01:14;3.45;;;1.08;;
16296;SDS011;8256;56.144;13.394;2023-06-14T07:04:00;2.77;;;1.00;;
16296;SDS011;8256;56.144;13.394;2023-06-14T07:06:46;3.58;;;1.35;;
16296;SDS011;8256;56.144;13.394;2023-06-14T07:09:32;3.17;;;1.10;;
16296;SDS011;8256;56.144;13.394;2023-06-14T07:12:17;2.70;;;1.05;;
16296;SDS011;8256;56.144;13.394;2023-06-14T07:15:03;3.33;;;1.23;;
16296;SDS011;8256;56.144;13.394;2023-06-14T07:17:49;2.90;;;1.17;;
16296;SDS011;8256;56.144;13.394;2023-06-14T07:20:36;3.05;;;1.10;;
16296;SDS011;8256;56.144;13.394;2023-06-14T07:23:23;3.08;;;1.15;;
16296;SDS011;8256;56.144;13.394;2023-06-14T07:26:09;3.10;;;1.10;;
16296;SDS011;8256;56.144;13.394;2023-06-14T07:28:54;3.03;;;1.23;;
16296;SDS011;8256;56.144;13.394;2023-06-14T07:31:40;3.60;;;1.53;;
16296;SDS011;8256;56.144;13.394;2023-06-14T07:34:26;3.65;;;1.60;;
16296;SDS011;8256;56.144;13.394;2023-06-14T07:37:12;3.28;;;1.20;;
16296;SDS011;8256;56.144;13.394;2023-06-14T07:39:58;2.85;;;1.10;;
16296;SDS011;8256;56.144;13.394;2023-06-14T07:42:43;3.45;;;1.27;;
16296;SDS011;8256;56.144;13.394;2023-06-14T07:45:29;4.37;;;1.20;;
16296;SDS011;8256;56.144;13.394;2023-06-14T07:48:15;3.50;;;1.30;;
16296;SDS011;8256;56.144;13.394;2023-06-14T07:51:00;3.25;;;1.30;;
16296;SDS011;8256;56.144;13.394;2023-06-14T07:53:46;3.58;;;1.40;;
16296;SDS011;8256;56.144;13.394;2023-06-14T07:56:32;3.20;;;1.30;;
16296;SDS011;8256;56.144;13.394;2023-06-14T07:59:18;3.10;;;1.33;;
16296;SDS011;8256;56.144;13.394;2023-06-14T08:02:03;5.07;;;1.30;;
16296;SDS011;8256;56.144;13.394;2023-06-14T08:04:49;5.18;;;1.67;;
16296;SDS011;8256;56.144;13.394;2023-06-14T08:07:35;3.95;;;1.80;;
16296;SDS011;8256;56.144;13.394;2023-06-14T08:10:21;3.95;;;1.40;;
16296;SDS011;8256;56.144;13.394;2023-06-14T08:13:06;4.80;;;1.50;;
16296;SDS011;8256;56.144;13.394;2023-06-14T08:15:52;3.50;;;1.50;;
16296;SDS011;8256;56.144;13.394;2023-06-14T08:18:37;3.95;;;1.30;;
16296;SDS011;8256;56.144;13.394;2023-06-14T08:21:23;3.72;;;1.50;;
16296;SDS011;8256;56.144;13.394;2023-06-14T08:24:10;3.67;;;1.42;;
16296;SDS011;8256;56.144;13.394;2023-06-14T08:26:57;2.90;;;1.17;;
16296;SDS011;8256;56.144;13.394;2023-06-14T08:29:46;3.40;;;1.35;;
16296;SDS011;8256;56.144;13.394;2023-06-14T08:32:32;2.95;;;1.27;;
16296;SDS011;8256;56.144;13.394;2023-06-14T08:35:17;3.42;;;1.63;;
16296;SDS011;8256;56.144;13.394;2023-06-14T08:38:03;3.53;;;1.63;;
16296;SDS011;8256;56.144;13.394;2023-06-14T08:40:50;3.83;;;1.57;;
16296;SDS011;8256;56.144;13.394;2023-06-14T08:43:36;3.25;;;1.60;;
16296;SDS011;8256;56.144;13.394;2023-06-14T08:46:21;4.45;;;1.95;;
16296;SDS011;8256;56.144;13.394;2023-06-14T08:49:11;5.45;;;1.60;;
16296;SDS011;8256;56.144;13.394;2023-06-14T08:51:57;3.17;;;1.40;;
16296;SDS011;8256;56.144;13.394;2023-06-14T08:54:43;3.40;;;1.60;;
16296;SDS011;8256;56.144;13.394;2023-06-14T08:57:30;5.00;;;1.40;;
16296;SDS011;8256;56.144;13.394;2023-06-14T09:00:15;3.50;;;1.40;;
16296;SDS011;8256;56.144;13.394;2023-06-14T09:03:01;3.58;;;1.70;;
16296;SDS011;8256;56.144;13.394;2023-06-14T09:05:48;3.28;;;1.42;;
16296;SDS011;8256;56.144;13.394;2023-06-14T09:08:35;3.87;;;1.70;;
16296;SDS011;8256;56.144;13.394;2023-06-14T09:11:21;3.20;;;1.48;;
16296;SDS011;8256;56.144;13.394;2023-06-14T09:14:06;3.15;;;1.48;;
16296;SDS011;8256;56.144;13.394;2023-06-14T09:16:52;3.40;;;1.45;;
16296;SDS011;8256;56.144;13.394;2023-06-14T09:19:38;3.80;;;1.50;;
16296;SDS011;8256;56.144;13.394;2023-06-14T09:22:23;3.63;;;1.33;;
16296;SDS011;8256;56.144;13.394;2023-06-14T09:25:09;3.92;;;1.73;;
16296;SDS011;8256;56.144;13.394;2023-06-14T09:27:55;6.72;;;1.50;;
16296;SDS011;8256;56.144;13.394;2023-06-14T09:30:40;4.13;;;1.52;;
16296;SDS011;8256;56.144;13.394;2023-06-14T09:33:26;4.80;;;2.08;;
16296;SDS011;8256;56.144;13.394;2023-06-14T09:36:31;10.50;;;1.73;;
16296;SDS011;8256;56.144;13.394;2023-06-14T09:39:17;8.65;;;2.00;;
16296;SDS011;8256;56.144;13.394;2023-06-14T09:42:05;3.50;;;1.40;;
16296;SDS011;8256;56.144;13.394;2023-06-14T09:45:03;4.22;;;1.80;;
16296;SDS011;8256;56.144;13.394;2023-06-14T09:47:50;6.95;;;2.08;;
16296;SDS011;8256;56.144;13.394;2023-06-14T09:50:36;4.30;;;2.00;;
16296;SDS011;8256;56.144;13.394;2023-06-14T09:53:22;3.55;;;1.90;;
16296;SDS011;8256;56.144;13.394;2023-06-14T09:56:09;3.85;;;1.60;;
16296;SDS011;8256;56.144;13.394;2023-06-14T09:58:56;3.47;;;1.50;;
16296;SDS011;8256;56.144;13.394;2023-06-14T10:01:42;3.92;;;1.80;;
16296;SDS011;8256;56.144;13.394;2023-06-14T10:04:29;3.80;;;1.93;;
16296;SDS011;8256;56.144;13.394;2023-06-14T10:07:20;4.43;;;2.08;;
16296;SDS011;8256;56.144;13.394;2023-06-14T10:10:06;3.55;;;1.67;;
16296;SDS011;8256;56.144;13.394;2023-06-14T10:12:52;3.40;;;1.90;;
16296;SDS011;8256;56.144;13.394;2023-06-14T10:15:52;4.63;;;1.92;;
16296;SDS011;8256;56.144;13.394;2023-06-14T10:18:51;3.60;;;1.90;;
16296;SDS011;8256;56.144;13.394;2023-06-14T10:24:43;4.13;;;1.88;;
16296;SDS011;8256;56.144;13.394;2023-06-14T10:27:29;3.60;;;1.80;;
16296;SDS011;8256;56.144;13.394;2023-06-14T10:30:16;3.75;;;1.90;;
16296;SDS011;8256;56.144;13.394;2023-06-14T10:33:05;4.73;;;1.97;;
16296;SDS011;8256;56.144;13.394;2023-06-14T10:36:06;3.42;;;1.73;;
16296;SDS011;8256;56.144;13.394;2023-06-14T10:39:04;4.13;;;2.20;;
16296;SDS011;8256;56.144;13.394;2023-06-14T10:41:55;3.53;;;1.90;;
16296;SDS011;8256;56.144;13.394;2023-06-14T10:44:45;4.22;;;2.25;;
16296;SDS011;8256;56.144;13.394;2023-06-14T10:47:31;5.73;;;1.90;;
16296;SDS011;8256;56.144;13.394;2023-06-14T10:50:17;4.30;;;2.00;;
16296;SDS011;8256;56.144;13.394;2023-06-14T10:53:21;3.78;;;2.25;;
16296;SDS011;8256;56.144;13.394;2023-06-14T10:56:07;3.55;;;2.10;;
16296;SDS011;8256;56.144;13.394;2023-06-14T10:58:52;4.35;;;2.40;;
16296;SDS011;8256;56.144;13.394;2023-06-14T11:01:40;4.00;;;2.10;;
16296;SDS011;8256;56.144;13.394;2023-06-14T11:04:32;7.72;;;2.45;;
16296;SDS011;8256;56.144;13.394;2023-06-14T11:13:24;5.28;;;2.28;;
16296;SDS011;8256;56.144;13.394;2023-06-14T11:16:16;3.83;;;2.40;;
16296;SDS011;8256;56.144;13.394;2023-06-14T11:19:02;3.78;;;2.40;;
16296;SDS011;8256;56.144;13.394;2023-06-14T11:21:51;3.78;;;2.28;;
16296;SDS011;8256;56.144;13.394;2023-06-14T11:24:36;5.25;;;2.40;;
16296;SDS011;8256;56.144;13.394;2023-06-14T11:27:22;4.55;;;2.55;;
16296;SDS011;8256;56.144;13.394;2023-06-14T11:30:08;4.33;;;2.60;;
16296;SDS011;8256;56.144;13.394;2023-06-14T11:32:54;4.32;;;2.47;;
16296;SDS011;8256;56.144;13.394;2023-06-14T11:35:40;4.43;;;2.60;;
16296;SDS011;8256;56.144;13.394;2023-06-14T11:38:26;4.40;;;2.47;;
16296;SDS011;8256;56.144;13.394;2023-06-14T11:41:12;4.18;;;2.58;;
16296;SDS011;8256;56.144;13.394;2023-06-14T11:43:57;4.00;;;2.50;;
16296;SDS011;8256;56.144;13.394;2023-06-14T11:46:45;3.53;;;2.33;;
16296;SDS011;8256;56.144;13.394;2023-06-14T11:49:34;4.32;;;2.85;;
16296;SDS011;8256;56.144;13.394;2023-06-14T11:52:20;5.20;;;2.88;;
16296;SDS011;8256;56.144;13.394;2023-06-14T11:55:05;6.90;;;3.70;;
16296;SDS011;8256;56.144;13.394;2023-06-14T11:57:55;5.00;;;2.83;;
16296;SDS011;8256;56.144;13.394;2023-06-14T12:00:40;4.35;;;2.90;;
16296;SDS011;8256;56.144;13.394;2023-06-14T12:03:28;3.95;;;2.67;;
16296;SDS011;8256;56.144;13.394;2023-06-14T12:06:14;6.68;;;2.75;;
16296;SDS011;8256;56.144;13.394;2023-06-14T12:09:00;4.38;;;2.92;;
16296;SDS011;8256;56.144;13.394;2023-06-14T12:11:48;4.40;;;3.07;;
16296;SDS011;8256;56.144;13.394;2023-06-14T12:14:34;3.95;;;2.70;;
16296;SDS011;8256;56.144;13.394;2023-06-14T12:17:19;6.15;;;3.22;;
16296;SDS011;8256;56.144;13.394;2023-06-14T12:20:05;4.45;;;3.30;;
16296;SDS011;8256;56.144;13.394;2023-06-14T12:22:54;4.55;;;3.47;;
16296;SDS011;8256;56.144;13.394;2023-06-14T12:25:41;4.03;;;3.17;;
16296;SDS011;8256;56.144;13.394;2023-06-14T12:28:28;4.88;;;3.20;;
16296;SDS011;8256;56.144;13.394;2023-06-14T12:31:16;4.70;;;3.03;;
16296;SDS011;8256;56.144;13.394;2023-06-14T12:34:02;4.22;;;2.83;;
16296;SDS011;8256;56.144;13.394;2023-06-14T12:36:48;6.82;;;3.38;;
16296;SDS011;8256;56.144;13.394;2023-06-14T12:39:34;4.50;;;3.13;;
16296;SDS011;8256;56.144;13.394;2023-06-14T12:42:20;4.90;;;3.50;;
16296;SDS011;8256;56.144;13.394;2023-06-14T12:45:05;10.07;;;3.78;;
16296;SDS011;8256;56.144;13.394;2023-06-14T12:47:51;4.65;;;3.50;;
16296;SDS011;8256;56.144;13.394;2023-06-14T12:50:37;7.45;;;3.95;;
16296;SDS011;8256;56.144;13.394;2023-06-14T12:53:23;4.97;;;4.13;;
16296;SDS011;8256;56.144;13.394;2023-06-14T12:56:08;6.35;;;5.75;;
16296;SDS011;8256;56.144;13.394;2023-06-14T12:58:54;6.63;;;6.03;;
16296;SDS011;8256;56.144;13.394;2023-06-14T13:01:40;7.07;;;6.47;;
16296;SDS011;8256;56.144;13.394;2023-06-14T13:04:25;8.07;;;7.38;;
16296;SDS011;8256;56.144;13.394;2023-06-14T13:07:11;9.37;;;8.67;;
16296;SDS011;8256;56.144;13.394;2023-06-14T13:09:57;10.55;;;9.75;;
16296;SDS011;8256;56.144;13.394;2023-06-14T13:12:42;11.73;;;10.93;;
16296;SDS011;8256;56.144;13.394;2023-06-14T13:15:28;13.43;;;12.45;;
16296;SDS011;8256;56.144;13.394;2023-06-14T13:18:13;14.40;;;13.40;;
16296;SDS011;8256;56.144;13.394;2023-06-14T13:20:59;15.20;;;14.20;;
16296;SDS011;8256;56.144;13.394;2023-06-14T13:23:45;16.75;;;15.75;;
16296;SDS011;8256;56.144;13.394;2023-06-14T13:26:30;17.27;;;16.17;;
16296;SDS011;8256;56.144;13.394;2023-06-14T13:29:16;17.05;;;16.05;;
16296;SDS011;8256;56.144;13.394;2023-06-14T13:32:02;19.20;;;18.00;;
16296;SDS011;8256;56.144;13.394;2023-06-14T13:34:48;17.77;;;16.67;;
16296;SDS011;8256;56.144;13.394;2023-06-14T13:37:33;19.58;;;18.38;;
16296;SDS011;8256;56.144;13.394;2023-06-14T13:40:19;21.48;;;20.17;;
16296;SDS011;8256;56.144;13.394;2023-06-14T13:43:05;21.55;;;20.25;;
16296;SDS011;8256;56.144;13.394;2023-06-14T13:45:50;24.08;;;22.67;;
16296;SDS011;8256;56.144;13.394;2023-06-14T13:48:36;24.23;;;22.83;;
16296;SDS011;8256;56.144;13.394;2023-06-14T13:51:21;26.65;;;25.05;;
16296;SDS011;8256;56.144;13.394;2023-06-14T13:54:07;26.42;;;24.92;;
16296;SDS011;8256;56.144;13.394;2023-06-14T13:56:53;21.08;;;19.88;;
16296;SDS011;8256;56.144;13.394;2023-06-14T13:59:39;18.73;;;17.58;;
16296;SDS011;8256;56.144;13.394;2023-06-14T14:02:25;14.05;;;13.15;;
16296;SDS011;8256;56.144;13.394;2023-06-14T14:05:11;14.20;;;13.20;;
16296;SDS011;8256;56.144;13.394;2023-06-14T14:07:56;11.82;;;10.73;;
16296;SDS011;8256;56.144;13.394;2023-06-14T14:10:42;10.63;;;9.82;;
16296;SDS011;8256;56.144;13.394;2023-06-14T14:13:28;10.05;;;9.35;;
16296;SDS011;8256;56.144;13.394;2023-06-14T14:16:13;9.97;;;9.17;;
16296;SDS011;8256;56.144;13.394;2023-06-14T14:18:59;9.02;;;8.32;;
16296;SDS011;8256;56.144;13.394;2023-06-14T14:21:45;9.27;;;8.57;;
16296;SDS011;8256;56.144;13.394;2023-06-14T14:24:30;9.95;;;9.15;;
16296;SDS011;8256;56.144;13.394;2023-06-14T14:27:16;11.95;;;11.15;;
16296;SDS011;8256;56.144;13.394;2023-06-14T14:30:02;14.32;;;13.35;;
16296;SDS011;8256;56.144;13.394;2023-06-14T14:32:48;17.05;;;15.98;;
16296;SDS011;8256;56.144;13.394;2023-06-14T14:35:33;20.88;;;19.67;;
16296;SDS011;8256;56.144;13.394;2023-06-14T14:38:19;23.42;;;22.02;;
16296;SDS011;8256;56.144;13.394;2023-06-14T14:41:05;23.23;;;21.92;;
16296;SDS011;8256;56.144;13.394;2023-06-14T14:43:50;23.90;;;22.50;;
16296;SDS011;8256;56.144;13.394;2023-06-14T14:46:36;25.35;;;23.95;;
16296;SDS011;8256;56.144;13.394;2023-06-14T14:49:21;26.75;;;25.25;;
16296;SDS011;8256;56.144;13.394;2023-06-14T14:52:07;24.77;;;23.38;;
16296;SDS011;8256;56.144;13.394;2023-06-14T14:54:53;20.27;;;19.08;;
16296;SDS011;8256;56.144;13.394;2023-06-14T14:57:39;16.75;;;15.75;;
16296;SDS011;8256;56.144;13.394;2023-06-14T15:00:25;14.35;;;13.45;;
16296;SDS011;8256;56.144;13.394;2023-06-14T15:03:10;10.88;;;9.63;;
16296;SDS011;8256;56.144;13.394;2023-06-14T15:05:56;10.35;;;8.98;;
16296;SDS011;8256;56.144;13.394;2023-06-14T15:08:42;7.55;;;6.88;;
16296;SDS011;8256;56.144;13.394;2023-06-14T15:11:27;7.03;;;6.43;;
16296;SDS011;8256;56.144;13.394;2023-06-14T15:14:13;6.20;;;5.60;;
16296;SDS011;8256;56.144;13.394;2023-06-14T15:17:00;4.93;;;4.43;;
16296;SDS011;8256;56.144;13.394;2023-06-14T15:19:47;5.35;;;4.40;;
16296;SDS011;8256;56.144;13.394;2023-06-14T15:22:33;5.32;;;4.20;;
16296;SDS011;8256;56.144;13.394;2023-06-14T15:25:18;4.90;;;4.30;;
16296;SDS011;8256;56.144;13.394;2023-06-14T15:28:05;5.55;;;5.05;;
16296;SDS011;8256;56.144;13.394;2023-06-14T15:30:52;5.43;;;4.93;;
16296;SDS011;8256;56.144;13.394;2023-06-14T15:33:37;5.90;;;5.40;;
16296;SDS011;8256;56.144;13.394;2023-06-14T15:36:24;9.18;;;7.72;;
16296;SDS011;8256;56.144;13.394;2023-06-14T15:39:10;9.57;;;8.83;;
16296;SDS011;8256;56.144;13.394;2023-06-14T15:41:55;11.27;;;10.43;;
16296;SDS011;8256;56.144;13.394;2023-06-14T15:44:41;14.65;;;13.65;;
16296;SDS011;8256;56.144;13.394;2023-06-14T15:47:27;19.13;;;17.83;;
16296;SDS011;8256;56.144;13.394;2023-06-14T15:50:13;21.48;;;20.27;;
16296;SDS011;8256;56.144;13.394;2023-06-14T15:52:58;24.38;;;22.98;;
16296;SDS011;8256;56.144;13.394;2023-06-14T15:55:44;24.00;;;22.63;;
16296;SDS011;8256;56.144;13.394;2023-06-14T15:58:29;23.27;;;21.98;;
16296;SDS011;8256;56.144;13.394;2023-06-14T16:01:15;23.73;;;22.42;;
16296;SDS011;8256;56.144;13.394;2023-06-14T16:04:01;18.88;;;17.77;;
16296;SDS011;8256;56.144;13.394;2023-06-14T16:06:46;19.63;;;18.20;;
16296;SDS011;8256;56.144;13.394;2023-06-14T16:09:32;18.23;;;16.83;;
16296;SDS011;8256;56.144;13.394;2023-06-14T16:12:17;18.67;;;17.58;;
16296;SDS011;8256;56.144;13.394;2023-06-14T16:15:06;14.15;;;13.25;;
16296;SDS011;8256;56.144;13.394;2023-06-14T16:17:52;14.35;;;13.15;;
16296;SDS011;8256;56.144;13.394;2023-06-14T16:20:39;15.48;;;14.45;;
16296;SDS011;8256;56.144;13.394;2023-06-14T16:23:25;15.80;;;14.80;;
16296;SDS011;8256;56.144;13.394;2023-06-14T16:26:11;19.63;;;18.48;;
16296;SDS011;8256;56.144;13.394;2023-06-14T16:28:58;21.10;;;19.90;;
16296;SDS011;8256;56.144;13.394;2023-06-14T16:31:43;21.88;;;20.60;;
16296;SDS011;8256;56.144;13.394;2023-06-14T16:34:29;23.88;;;22.52;;
16296;SDS011;8256;56.144;13.394;2023-06-14T16:37:16;23.90;;;22.52;;
16296;SDS011;8256;56.144;13.394;2023-06-14T16:40:01;24.25;;;22.85;;
16296;SDS011;8256;56.144;13.394;2023-06-14T16:42:48;20.50;;;19.30;;
16296;SDS011;8256;56.144;13.394;2023-06-14T16:45:33;20.38;;;19.08;;
16296;SDS011;8256;56.144;13.394;2023-06-14T16:48:19;21.48;;;20.27;;
16296;SDS011;8256;56.144;13.394;2023-06-14T16:51:05;18.20;;;16.90;;
16296;SDS011;8256;56.144;13.394;2023-06-14T16:53:51;16.35;;;15.35;;
16296;SDS011;8256;56.144;13.394;2023-06-14T16:56:37;17.20;;;16.15;;
16296;SDS011;8256;56.144;13.394;2023-06-14T16:59:22;16.17;;;15.07;;
16296;SDS011;8256;56.144;13.394;2023-06-14T17:02:08;15.63;;;14.68;;